createdAt,value
2022-12-14T00:01:18.689Z,7.88
2022-12-14T00:04:07.679Z,16.27
2022-12-14T00:06:41.636Z,17.52
2022-12-14T00:09:29.690Z,9.27
2022-12-14T00:12:09.668Z,11.27
2022-12-14T00:14:57.663Z,22.58
2022-12-14T00:17:31.814Z,8.98
2022-12-14T00:20:20.691Z,14.73
2022-12-14T00:22:55.519Z,13.68
2022-12-14T00:25:44.681Z,19.63
2022-12-14T00:28:35.661Z,14.43
2022-12-14T00:31:17.752Z,9.63
2022-12-14T00:34:05.689Z,11.23
2022-12-14T00:36:39.756Z,9.90
2022-12-14T00:39:27.681Z,5.50
2022-12-14T00:42:08.754Z,9.32
2022-12-14T00:44:48.679Z,13.18
2022-12-14T00:47:40.713Z,13.85
2022-12-14T00:50:14.704Z,10.30
2022-12-14T00:53:02.701Z,16.35
2022-12-14T00:55:43.723Z,11.15
2022-12-14T00:58:34.684Z,9.20
2022-12-14T01:01:18.821Z,7.30
2022-12-14T01:04:24.698Z,8.98
2022-12-14T01:07:11.655Z,10.70
2022-12-14T01:09:45.760Z,6.63
2022-12-14T01:12:32.698Z,15.02
2022-12-14T01:15:06.784Z,9.73
2022-12-14T01:17:54.672Z,15.60
2022-12-14T01:20:28.729Z,3.75
2022-12-14T01:23:15.681Z,7.43
2022-12-14T01:25:56.727Z,16.55
2022-12-14T01:28:36.709Z,10.27
2022-12-14T01:31:22.785Z,10.38
2022-12-14T01:34:03.695Z,9.15
2022-12-14T01:36:44.748Z,17.15
2022-12-14T01:39:24.655Z,11.10
2022-12-14T01:42:05.747Z,13.18
2022-12-14T01:44:45.678Z,17.45
2022-12-14T01:47:52.716Z,6.15
2022-12-14T01:50:26.721Z,8.10
2022-12-14T01:53:20.659Z,6.20
2022-12-14T01:55:55.767Z,9.77
2022-12-14T01:58:43.661Z,11.73
2022-12-14T02:01:17.719Z,4.15
2022-12-14T02:04:05.669Z,5.13
2022-12-14T02:06:47.688Z,8.10
2022-12-14T02:09:31.762Z,13.88
2022-12-14T02:12:22.693Z,13.40
2022-12-14T02:15:04.765Z,12.10
2022-12-14T02:17:45.694Z,12.75
2022-12-14T02:20:28.771Z,12.40
2022-12-14T02:23:22.684Z,12.88
2022-12-14T02:26:19.676Z,9.38
2022-12-14T02:29:23.695Z,20.13
2022-12-14T02:32:10.762Z,10.13
2022-12-14T02:34:50.678Z,5.03
2022-12-14T02:37:44.665Z,6.68
2022-12-14T02:40:42.876Z,13.50
2022-12-14T02:43:30.874Z,5.07
2022-12-14T02:46:26.725Z,10.98
2022-12-14T02:49:17.756Z,8.35
2022-12-14T02:52:03.659Z,11.05
2022-12-14T02:55:06.674Z,10.55
2022-12-14T02:58:11.669Z,4.50
2022-12-14T03:00:59.706Z,9.23
2022-12-14T03:03:40.701Z,8.32
2022-12-14T03:06:26.522Z,11.38
2022-12-14T03:09:09.699Z,5.07
2022-12-14T03:12:02.756Z,6.88
2022-12-14T03:14:53.704Z,12.65
2022-12-14T03:17:31.762Z,8.68
2022-12-14T03:20:20.670Z,12.52
2022-12-14T03:22:59.726Z,7.05
2022-12-14T03:26:01.681Z,5.32
2022-12-14T03:28:35.748Z,8.57
2022-12-14T03:31:49.743Z,9.43
2022-12-14T03:34:27.867Z,3.50
2022-12-14T03:37:32.687Z,7.20
2022-12-14T03:40:28.663Z,3.90
2022-12-14T03:43:25.054Z,5.85
2022-12-14T03:46:27.668Z,8.00
2022-12-14T03:49:43.674Z,4.95
2022-12-14T03:52:46.760Z,8.88
2022-12-14T03:55:33.679Z,9.52
2022-12-14T03:58:13.774Z,16.27
2022-12-14T04:01:07.755Z,14.80
2022-12-14T04:04:20.779Z,7.53
2022-12-14T04:07:26.676Z,6.63
2022-12-14T04:10:42.677Z,4.55
2022-12-14T04:13:53.662Z,11.90
2022-12-14T04:16:57.680Z,8.55
2022-12-14T04:20:01.680Z,10.55
2022-12-14T04:22:54.645Z,15.85
2022-12-14T04:26:03.674Z,17.30
2022-12-14T04:29:23.654Z,11.57
2022-12-14T04:32:25.727Z,10.50
2022-12-14T04:35:32.687Z,12.32
2022-12-14T04:38:29.670Z,9.63
2022-12-14T04:41:21.651Z,10.90
2022-12-14T04:44:03.671Z,10.45
2022-12-14T04:46:51.684Z,11.25
2022-12-14T04:49:39.747Z,14.50
2022-12-14T04:52:17.972Z,16.80
2022-12-14T04:55:18.661Z,18.13
2022-12-14T04:58:04.979Z,19.15
2022-12-14T05:00:58.709Z,10.55
2022-12-14T05:03:35.448Z,19.80
2022-12-14T05:06:27.673Z,13.32
2022-12-14T05:09:16.676Z,19.92
2022-12-14T05:12:00.748Z,16.10
2022-12-14T05:14:41.666Z,16.67
2022-12-14T05:17:29.672Z,15.57
2022-12-14T05:20:12.690Z,15.07
2022-12-14T05:22:53.760Z,21.50
2022-12-14T05:25:34.663Z,16.27
2022-12-14T05:28:22.674Z,16.02
2022-12-14T05:30:56.675Z,19.90
2022-12-14T05:33:44.672Z,12.88
2022-12-14T05:36:19.908Z,21.38
2022-12-14T05:39:07.695Z,20.10
2022-12-14T05:41:49.680Z,21.70
2022-12-14T05:44:30.838Z,23.95
2022-12-14T05:47:12.661Z,24.50
2022-12-14T05:49:53.743Z,22.95
2022-12-14T05:52:35.668Z,19.67
2022-12-14T05:55:16.771Z,27.05
2022-12-14T05:57:56.653Z,25.00
2022-12-14T06:00:44.665Z,30.67
2022-12-14T06:03:18.640Z,26.50
2022-12-14T06:06:06.694Z,25.15
2022-12-14T06:09:01.676Z,33.25
2022-12-14T06:11:49.689Z,33.63
2022-12-14T06:14:25.428Z,59.22
2022-12-14T06:17:11.686Z,62.58
2022-12-14T06:19:50.077Z,50.25
2022-12-14T06:22:42.756Z,52.22
2022-12-14T06:25:19.773Z,47.63
2022-12-14T06:28:06.697Z,53.63
2022-12-14T06:30:47.738Z,67.60
2022-12-14T06:33:42.699Z,68.38
2022-12-14T06:36:36.688Z,40.17
2022-12-14T06:39:11.743Z,44.95
2022-12-14T06:41:59.676Z,47.50
2022-12-14T06:44:33.799Z,38.60
2022-12-14T06:47:21.667Z,37.38
2022-12-14T06:49:57.740Z,33.50
2022-12-14T06:52:46.675Z,28.58
2022-12-14T06:55:20.751Z,59.97
2022-12-14T06:58:07.687Z,46.45
2022-12-14T07:00:48.765Z,52.33
2022-12-14T07:03:36.989Z,65.82
2022-12-14T07:06:11.775Z,122.85
2022-12-14T07:09:03.676Z,130.13
2022-12-14T07:11:37.842Z,110.53
2022-12-14T07:14:25.680Z,103.90
2022-12-14T07:16:59.759Z,97.78
2022-12-14T07:19:49.220Z,97.88
2022-12-14T07:22:22.780Z,55.63
2022-12-14T07:25:10.673Z,46.63
2022-12-14T07:27:44.786Z,51.35
2022-12-14T07:30:31.670Z,35.15
2022-12-14T07:33:05.778Z,49.72
2022-12-14T07:35:53.687Z,47.25
2022-12-14T07:38:27.745Z,82.28
2022-12-14T07:41:22.733Z,78.18
2022-12-14T07:43:57.756Z,83.97
2022-12-14T07:46:44.697Z,72.68
2022-12-14T07:49:18.774Z,90.25
2022-12-14T07:52:05.697Z,82.53
2022-12-14T07:54:39.752Z,53.60
2022-12-14T07:57:26.670Z,47.53
2022-12-14T08:00:07.670Z,47.10
2022-12-14T08:03:01.683Z,54.75
2022-12-14T08:05:48.671Z,70.40
2022-12-14T08:08:22.747Z,59.63
2022-12-14T08:11:10.684Z,54.38
2022-12-14T08:13:51.681Z,51.95
2022-12-14T08:16:46.666Z,50.13
2022-12-14T08:19:33.688Z,39.65
2022-12-14T08:22:07.739Z,29.98
2022-12-14T08:24:54.693Z,27.00
2022-12-14T08:27:28.763Z,30.85
2022-12-14T08:30:16.681Z,27.58
2022-12-14T08:32:57.675Z,23.25
2022-12-14T08:35:51.665Z,18.80
2022-12-14T08:38:38.688Z,30.25
2022-12-14T08:41:18.311Z,27.55
2022-12-14T08:44:05.688Z,26.77
2022-12-14T08:46:42.476Z,29.40
2022-12-14T08:52:06.772Z,25.70
2022-12-14T08:54:54.684Z,16.08
2022-12-14T08:57:35.694Z,22.30
2022-12-14T09:00:30.698Z,15.85
2022-12-14T09:03:18.745Z,31.38
2022-12-14T09:06:06.666Z,29.67
2022-12-14T09:08:49.959Z,27.83
2022-12-14T09:11:37.687Z,28.52
2022-12-14T09:14:11.640Z,29.95
2022-12-14T09:16:59.680Z,37.65
2022-12-14T09:19:33.745Z,23.33
2022-12-14T09:22:21.864Z,35.67
2022-12-14T09:25:03.675Z,45.45
2022-12-14T09:27:44.726Z,19.40
2022-12-14T09:30:26.945Z,30.88
2022-12-14T09:33:07.829Z,22.27
2022-12-14T09:35:47.691Z,32.33
2022-12-14T09:38:35.690Z,23.27
2022-12-14T09:41:28.660Z,37.05
2022-12-14T09:44:24.999Z,24.65
2022-12-14T09:47:08.663Z,27.17
2022-12-14T09:50:14.692Z,23.23
2022-12-14T09:52:53.582Z,30.13
2022-12-14T09:55:45.687Z,32.05
2022-12-14T09:58:21.985Z,39.85
2022-12-14T10:01:12.780Z,32.23
2022-12-14T10:03:58.805Z,28.90
2022-12-14T10:06:46.662Z,27.50
2022-12-14T10:09:29.886Z,34.78
2022-12-14T10:12:23.683Z,35.20
2022-12-14T10:15:21.509Z,31.40
2022-12-14T10:18:27.568Z,29.70
2022-12-14T10:21:09.668Z,33.30
2022-12-14T10:23:56.790Z,33.22
2022-12-14T10:26:42.646Z,26.67
2022-12-14T10:29:50.677Z,39.47
2022-12-14T10:32:39.660Z,27.90
2022-12-14T10:35:20.750Z,30.55
2022-12-14T10:38:23.683Z,30.00
2022-12-14T10:41:11.941Z,28.00
2022-12-14T10:44:20.686Z,32.33
2022-12-14T10:47:03.800Z,18.92
2022-12-14T10:50:00.701Z,27.63
2022-12-14T10:52:56.686Z,26.02
2022-12-14T10:55:54.647Z,30.02
2022-12-14T10:58:42.664Z,34.00
2022-12-14T11:01:28.741Z,34.03
2022-12-14T11:04:44.676Z,27.35
2022-12-14T11:07:40.665Z,21.80
2022-12-14T11:10:56.653Z,27.90
2022-12-14T11:13:37.675Z,28.17
2022-12-14T11:16:36.057Z,36.75
2022-12-14T11:19:21.743Z,23.83
2022-12-14T11:22:22.169Z,33.25
2022-12-14T11:24:56.768Z,49.67
2022-12-14T11:27:45.692Z,51.53
2022-12-14T11:30:37.685Z,51.35
2022-12-14T11:33:17.829Z,28.77
2022-12-14T11:36:06.681Z,33.95
2022-12-14T11:38:40.632Z,44.63
2022-12-14T11:41:34.687Z,25.55
2022-12-14T11:44:15.672Z,21.58
2022-12-14T11:47:06.662Z,22.05
2022-12-14T11:49:40.626Z,28.58
2022-12-14T11:52:30.685Z,29.33
2022-12-14T11:55:07.561Z,24.48
2022-12-14T11:58:01.658Z,22.08
2022-12-14T12:00:46.815Z,27.25
2022-12-14T12:03:27.779Z,33.38
2022-12-14T12:06:17.684Z,18.33
2022-12-14T12:09:04.728Z,27.25
2022-12-14T12:11:51.654Z,19.58
2022-12-14T12:14:36.914Z,16.33
2022-12-14T12:17:49.646Z,15.75
2022-12-14T12:20:36.785Z,16.85
2022-12-14T12:23:27.892Z,22.35
2022-12-14T12:26:21.674Z,25.67
2022-12-14T12:29:31.679Z,13.85
2022-12-14T12:32:33.697Z,14.98
2022-12-14T12:35:49.700Z,14.35
2022-12-14T12:38:43.678Z,21.20
2022-12-14T12:41:40.687Z,25.90
2022-12-14T12:44:39.703Z,24.17
2022-12-14T12:47:47.798Z,21.40
2022-12-14T12:50:41.665Z,22.42
2022-12-14T12:53:25.678Z,12.80
2022-12-14T12:56:18.680Z,19.52
2022-12-14T12:58:53.818Z,31.40
2022-12-14T13:01:49.759Z,20.58
2022-12-14T13:04:52.694Z,20.02
2022-12-14T13:07:52.669Z,17.65
2022-12-14T13:11:17.135Z,16.13
2022-12-14T13:13:50.687Z,22.48
2022-12-14T13:16:43.726Z,25.05
2022-12-14T13:19:51.520Z,40.88
2022-12-14T13:22:48.670Z,53.38
2022-12-14T13:25:55.683Z,37.35
2022-12-14T13:29:12.669Z,23.33
2022-12-14T13:32:12.840Z,42.15
2022-12-14T13:35:00.677Z,50.97
2022-12-14T13:38:06.684Z,42.75
2022-12-14T13:41:25.669Z,17.23
2022-12-14T13:44:12.687Z,32.28
2022-12-14T13:47:10.688Z,29.80
2022-12-14T13:53:04.753Z,20.30
2022-12-14T13:56:03.638Z,26.77
2022-12-14T13:58:53.682Z,30.27
2022-12-14T14:01:46.849Z,23.13
2022-12-14T14:04:35.735Z,18.30
2022-12-14T14:07:28.768Z,30.77
2022-12-14T14:10:35.679Z,27.38
2022-12-14T14:13:29.774Z,25.77
2022-12-14T14:16:30.835Z,21.35
2022-12-14T14:19:18.116Z,21.70
2022-12-14T14:22:25.771Z,31.75
2022-12-14T14:25:09.574Z,29.92
2022-12-14T14:27:58.666Z,20.73
2022-12-14T14:30:43.753Z,22.38
2022-12-14T14:33:48.300Z,27.10
2022-12-14T14:36:37.287Z,20.15
2022-12-14T14:39:56.139Z,24.60
2022-12-14T14:42:38.780Z,27.48
2022-12-14T14:45:32.677Z,19.25
2022-12-14T14:48:29.290Z,30.40
2022-12-14T14:51:35.692Z,22.98
2022-12-14T14:57:42.825Z,25.13
2022-12-14T15:00:23.764Z,26.77
2022-12-14T15:03:04.730Z,32.20
2022-12-14T15:05:47.817Z,12.50
2022-12-14T15:08:43.699Z,24.95
2022-12-14T15:11:27.917Z,30.27
2022-12-14T15:14:09.660Z,29.65
2022-12-14T15:16:59.729Z,32.42
2022-12-14T15:19:40.676Z,24.25
2022-12-14T15:22:24.835Z,28.30
2022-12-14T15:25:06.678Z,29.92
2022-12-14T15:27:54.697Z,22.17
2022-12-14T15:30:49.680Z,11.75
2022-12-14T15:33:37.678Z,25.80
2022-12-14T15:36:15.789Z,30.08
2022-12-14T15:39:04.689Z,33.25
2022-12-14T15:41:40.030Z,47.42
2022-12-14T15:44:28.901Z,44.20
2022-12-14T15:47:05.093Z,54.63
2022-12-14T15:49:57.690Z,74.07
2022-12-14T15:52:36.742Z,62.67
2022-12-14T15:55:29.677Z,66.82
2022-12-14T15:58:11.667Z,50.78
2022-12-14T16:01:09.043Z,68.55
2022-12-14T16:04:01.840Z,78.03
2022-12-14T16:06:36.808Z,85.93
2022-12-14T16:09:35.705Z,92.35
2022-12-14T16:12:12.778Z,77.10
2022-12-14T16:15:06.693Z,72.03
2022-12-14T16:17:47.683Z,79.18
2022-12-14T16:20:22.369Z,81.35
2022-12-14T16:23:14.017Z,80.00
2022-12-14T16:25:58.838Z,75.15
2022-12-14T16:28:45.682Z,56.83
2022-12-14T16:31:28.698Z,44.47
2022-12-14T16:34:32.086Z,61.70
2022-12-14T16:37:33.743Z,46.30
2022-12-14T16:40:40.698Z,43.97
2022-12-14T16:43:22.729Z,32.17
2022-12-14T16:46:17.804Z,41.95
2022-12-14T16:49:31.668Z,42.80
2022-12-14T16:52:23.707Z,46.90
2022-12-14T16:55:26.409Z,43.13
2022-12-14T16:58:12.830Z,40.55
2022-12-14T17:00:48.030Z,48.83
2022-12-14T17:03:37.401Z,53.00
2022-12-14T17:06:13.779Z,55.72
2022-12-14T17:09:03.253Z,43.72
2022-12-14T17:11:43.692Z,56.03
2022-12-14T17:14:38.076Z,49.78
2022-12-14T17:17:42.747Z,58.33
2022-12-14T17:20:21.860Z,55.90
2022-12-14T17:23:12.145Z,49.45
2022-12-14T17:25:53.744Z,54.63
2022-12-14T17:28:41.682Z,61.70
2022-12-14T17:31:24.841Z,60.97
2022-12-14T17:34:11.704Z,58.45
2022-12-14T17:36:53.737Z,65.88
2022-12-14T17:39:35.772Z,64.22
2022-12-14T17:42:27.726Z,75.97
2022-12-14T17:45:01.795Z,69.55
2022-12-14T17:47:49.771Z,65.53
2022-12-14T17:50:31.702Z,44.80
2022-12-14T17:53:19.745Z,80.88
2022-12-14T17:55:53.969Z,59.90
2022-12-14T17:58:41.737Z,48.67
2022-12-14T18:01:23.746Z,53.55
2022-12-14T18:04:05.107Z,60.03
2022-12-14T18:06:44.677Z,53.30
2022-12-14T18:09:32.700Z,52.50
2022-12-14T18:12:23.872Z,52.97
2022-12-14T18:15:12.708Z,46.53
2022-12-14T18:17:46.724Z,31.75
2022-12-14T18:20:38.730Z,48.53
2022-12-14T18:23:20.698Z,77.00
2022-12-14T18:26:10.692Z,80.90
2022-12-14T18:28:44.968Z,64.65
2022-12-14T18:31:32.775Z,63.22
2022-12-14T18:34:07.059Z,68.40
2022-12-14T18:36:57.822Z,80.32
2022-12-14T18:39:31.644Z,83.03
2022-12-14T18:42:22.775Z,94.57
2022-12-14T18:45:02.724Z,129.02
2022-12-14T18:47:43.916Z,78.20
2022-12-14T18:50:26.761Z,67.57
2022-12-14T18:53:07.774Z,62.85
2022-12-14T18:55:48.760Z,72.22
2022-12-14T18:58:40.732Z,57.38
2022-12-14T19:01:22.846Z,57.10
2022-12-14T19:04:04.155Z,67.50
2022-12-14T19:06:51.674Z,56.72
2022-12-14T19:09:46.688Z,52.83
2022-12-14T19:12:34.753Z,64.60
2022-12-14T19:15:15.706Z,57.17
2022-12-14T19:18:03.970Z,67.53
2022-12-14T19:20:37.773Z,63.15
2022-12-14T19:23:27.992Z,62.05
2022-12-14T19:26:09.842Z,51.67
2022-12-14T19:29:03.781Z,48.90
2022-12-14T19:31:54.232Z,45.55
2022-12-14T19:34:28.762Z,35.80
2022-12-14T19:37:15.944Z,39.03
2022-12-14T19:39:50.670Z,56.28
2022-12-14T19:42:39.169Z,26.65
2022-12-14T19:45:13.771Z,43.33
2022-12-14T19:48:03.016Z,41.13
2022-12-14T19:50:37.770Z,51.25
2022-12-14T19:53:25.764Z,73.63
2022-12-14T19:56:06.717Z,71.90
2022-12-14T19:59:04.701Z,39.83
2022-12-14T20:01:52.846Z,55.80
2022-12-14T20:04:34.782Z,73.47
2022-12-14T20:07:28.769Z,54.08
2022-12-14T20:10:16.784Z,59.97
2022-12-14T20:12:50.803Z,80.25
2022-12-14T20:15:39.783Z,191.63
2022-12-14T20:18:13.924Z,169.68
2022-12-14T20:21:10.707Z,127.38
2022-12-14T20:23:47.155Z,83.90
2022-12-14T20:26:34.700Z,46.22
2022-12-14T20:29:15.711Z,112.68
2022-12-14T20:32:04.748Z,79.47
2022-12-14T20:34:39.370Z,51.60
2022-12-14T20:37:26.713Z,101.43
2022-12-14T20:40:07.741Z,98.20
2022-12-14T20:42:55.693Z,138.00
2022-12-14T20:45:36.713Z,122.47
2022-12-14T20:48:30.681Z,108.00
2022-12-14T20:51:18.693Z,93.93
2022-12-14T20:53:53.776Z,140.07
2022-12-14T20:56:41.703Z,132.30
2022-12-14T20:59:16.748Z,97.55
2022-12-14T21:02:07.197Z,142.63
2022-12-14T21:04:41.746Z,89.15
2022-12-14T21:07:28.711Z,89.93
2022-12-14T21:10:02.770Z,54.67
2022-12-14T21:12:50.706Z,109.22
2022-12-14T21:15:31.704Z,82.93
2022-12-14T21:18:12.688Z,71.15
2022-12-14T21:21:01.076Z,59.67
2022-12-14T21:23:34.739Z,131.15
2022-12-14T21:26:22.700Z,130.90
2022-12-14T21:28:56.797Z,135.65
2022-12-14T21:31:44.696Z,169.75
2022-12-14T21:34:20.849Z,166.82
2022-12-14T21:37:08.679Z,166.07
2022-12-14T21:39:46.328Z,167.85
2022-12-14T21:42:39.691Z,157.20
2022-12-14T21:45:20.702Z,126.25
2022-12-14T21:48:08.691Z,155.25
2022-12-14T21:50:45.328Z,149.38
2022-12-14T21:53:35.366Z,116.90
2022-12-14T21:56:34.701Z,105.25
2022-12-14T21:59:15.796Z,101.38
2022-12-14T22:01:55.951Z,119.68
2022-12-14T22:04:40.004Z,90.80
2022-12-14T22:07:20.687Z,121.80
2022-12-14T22:10:01.767Z,82.10
2022-12-14T22:12:41.696Z,89.18
2022-12-14T22:15:22.817Z,85.53
2022-12-14T22:18:02.710Z,71.93
2022-12-14T22:20:43.773Z,85.45
2022-12-14T22:23:24.654Z,84.75
2022-12-14T22:26:05.764Z,46.45
2022-12-14T22:28:45.684Z,52.78
2022-12-14T22:31:26.802Z,79.72
2022-12-14T22:34:07.689Z,89.53
2022-12-14T22:36:55.690Z,171.40
2022-12-14T22:39:36.688Z,158.32
2022-12-14T22:42:17.793Z,158.82
2022-12-14T22:44:58.684Z,207.75
2022-12-14T22:47:46.677Z,117.65
2022-12-14T22:50:27.709Z,88.25
2022-12-14T22:53:15.684Z,89.50
2022-12-14T22:55:49.990Z,88.07
2022-12-14T22:58:38.687Z,97.32
2022-12-14T23:01:13.640Z,101.20
2022-12-14T23:04:01.810Z,110.77
2022-12-14T23:06:41.696Z,124.28
2022-12-14T23:09:47.708Z,135.10
2022-12-14T23:12:53.700Z,140.05
2022-12-14T23:15:46.454Z,118.68
2022-12-14T23:18:51.732Z,137.98
2022-12-14T23:21:45.490Z,121.93
2022-12-14T23:24:51.688Z,117.60
2022-12-14T23:27:44.546Z,110.80
2022-12-14T23:30:50.721Z,183.93
2022-12-14T23:33:49.676Z,168.07
2022-12-14T23:36:55.685Z,166.45
2022-12-14T23:39:54.686Z,194.40
2022-12-14T23:43:06.690Z,193.27
2022-12-14T23:46:12.728Z,177.02
2022-12-14T23:49:08.099Z,182.05
2022-12-14T23:52:16.685Z,151.20
2022-12-14T23:55:15.725Z,180.20
2022-12-14T23:58:23.690Z,159.00
